sensor_id;sensor_type;location;lat;lon;timestamp;P1;durP1;ratioP1;P2;durP2;ratioP2
10641;SDS011;5369;49.586;8.646;2022-12-11T00:00:21;49.23;;;25.77;;
10641;SDS011;5369;49.586;8.646;2022-12-11T00:02:47;42.33;;;24.07;;
10641;SDS011;5369;49.586;8.646;2022-12-11T00:05:14;47.03;;;25.73;;
10641;SDS011;5369;49.586;8.646;2022-12-11T00:07:40;46.37;;;24.97;;
10641;SDS011;5369;49.586;8.646;2022-12-11T00:10:06;41.23;;;23.17;;
10641;SDS011;5369;49.586;8.646;2022-12-11T00:12:33;36.93;;;21.13;;
10641;SDS011;5369;49.586;8.646;2022-12-11T00:14:59;38.23;;;21.70;;
10641;SDS011;5369;49.586;8.646;2022-12-11T00:17:26;36.30;;;21.33;;
10641;SDS011;5369;49.586;8.646;2022-12-11T00:19:52;40.03;;;22.17;;
10641;SDS011;5369;49.586;8.646;2022-12-11T00:22:18;38.23;;;22.33;;
10641;SDS011;5369;49.586;8.646;2022-12-11T00:24:44;34.13;;;20.10;;
10641;SDS011;5369;49.586;8.646;2022-12-11T00:27:11;36.03;;;20.60;;
10641;SDS011;5369;49.586;8.646;2022-12-11T00:29:41;38.30;;;22.87;;
10641;SDS011;5369;49.586;8.646;2022-12-11T00:32:07;34.10;;;20.97;;
10641;SDS011;5369;49.586;8.646;2022-12-11T00:34:33;42.87;;;22.40;;
10641;SDS011;5369;49.586;8.646;2022-12-11T00:37:01;57.40;;;25.53;;
10641;SDS011;5369;49.586;8.646;2022-12-11T00:39:27;60.07;;;25.73;;
10641;SDS011;5369;49.586;8.646;2022-12-11T00:41:53;54.50;;;26.47;;
10641;SDS011;5369;49.586;8.646;2022-12-11T00:44:21;50.70;;;25.70;;
10641;SDS011;5369;49.586;8.646;2022-12-11T00:46:47;43.27;;;24.23;;
10641;SDS011;5369;49.586;8.646;2022-12-11T00:49:15;39.80;;;24.47;;
10641;SDS011;5369;49.586;8.646;2022-12-11T00:51:41;37.57;;;22.80;;
10641;SDS011;5369;49.586;8.646;2022-12-11T00:54:07;42.37;;;23.67;;
10641;SDS011;5369;49.586;8.646;2022-12-11T00:56:33;36.60;;;22.17;;
10641;SDS011;5369;49.586;8.646;2022-12-11T00:58:59;36.80;;;22.27;;
10641;SDS011;5369;49.586;8.646;2022-12-11T01:01:26;35.73;;;21.43;;
10641;SDS011;5369;49.586;8.646;2022-12-11T01:03:52;37.57;;;22.00;;
10641;SDS011;5369;49.586;8.646;2022-12-11T01:06:20;40.27;;;23.50;;
10641;SDS011;5369;49.586;8.646;2022-12-11T01:08:47;40.60;;;24.27;;
10641;SDS011;5369;49.586;8.646;2022-12-11T01:11:33;38.17;;;23.07;;
10641;SDS011;5369;49.586;8.646;2022-12-11T01:13:59;45.47;;;25.20;;
10641;SDS011;5369;49.586;8.646;2022-12-11T01:16:25;44.83;;;25.33;;
10641;SDS011;5369;49.586;8.646;2022-12-11T01:18:52;38.67;;;23.87;;
10641;SDS011;5369;49.586;8.646;2022-12-11T01:21:18;35.90;;;22.13;;
10641;SDS011;5369;49.586;8.646;2022-12-11T01:23:44;38.20;;;23.57;;
10641;SDS011;5369;49.586;8.646;2022-12-11T01:26:12;35.27;;;21.90;;
10641;SDS011;5369;49.586;8.646;2022-12-11T01:28:39;36.27;;;21.70;;
10641;SDS011;5369;49.586;8.646;2022-12-11T01:31:12;35.13;;;21.63;;
10641;SDS011;5369;49.586;8.646;2022-12-11T01:33:38;33.07;;;19.73;;
10641;SDS011;5369;49.586;8.646;2022-12-11T01:38:34;31.80;;;19.63;;
10641;SDS011;5369;49.586;8.646;2022-12-11T01:41:00;30.33;;;19.00;;
10641;SDS011;5369;49.586;8.646;2022-12-11T01:43:26;36.87;;;22.43;;
10641;SDS011;5369;49.586;8.646;2022-12-11T01:45:52;32.93;;;21.73;;
10641;SDS011;5369;49.586;8.646;2022-12-11T01:48:26;34.20;;;20.60;;
10641;SDS011;5369;49.586;8.646;2022-12-11T01:50:57;36.27;;;23.27;;
10641;SDS011;5369;49.586;8.646;2022-12-11T01:53:29;34.73;;;20.03;;
10641;SDS011;5369;49.586;8.646;2022-12-11T01:55:56;37.87;;;22.60;;
10641;SDS011;5369;49.586;8.646;2022-12-11T01:58:24;37.50;;;22.80;;
10641;SDS011;5369;49.586;8.646;2022-12-11T02:00:51;39.27;;;23.60;;
10641;SDS011;5369;49.586;8.646;2022-12-11T02:03:17;58.93;;;29.47;;
10641;SDS011;5369;49.586;8.646;2022-12-11T02:05:44;44.27;;;24.67;;
10641;SDS011;5369;49.586;8.646;2022-12-11T02:08:10;35.87;;;22.53;;
10641;SDS011;5369;49.586;8.646;2022-12-11T02:10:41;37.47;;;22.57;;
10641;SDS011;5369;49.586;8.646;2022-12-11T02:13:12;38.70;;;23.73;;
10641;SDS011;5369;49.586;8.646;2022-12-11T02:15:46;35.73;;;21.73;;
10641;SDS011;5369;49.586;8.646;2022-12-11T02:21:02;40.30;;;22.00;;
10641;SDS011;5369;49.586;8.646;2022-12-11T02:23:40;43.07;;;23.57;;
10641;SDS011;5369;49.586;8.646;2022-12-11T02:31:23;37.57;;;22.67;;
10641;SDS011;5369;49.586;8.646;2022-12-11T02:34:12;38.70;;;22.57;;
10641;SDS011;5369;49.586;8.646;2022-12-11T02:36:39;43.93;;;25.33;;
10641;SDS011;5369;49.586;8.646;2022-12-11T02:39:07;36.87;;;20.80;;
10641;SDS011;5369;49.586;8.646;2022-12-11T02:41:35;43.33;;;24.97;;
10641;SDS011;5369;49.586;8.646;2022-12-11T02:44:02;38.37;;;23.20;;
10641;SDS011;5369;49.586;8.646;2022-12-11T02:46:29;42.80;;;22.63;;
10641;SDS011;5369;49.586;8.646;2022-12-11T02:48:56;37.07;;;22.20;;
10641;SDS011;5369;49.586;8.646;2022-12-11T02:51:24;40.03;;;24.70;;
10641;SDS011;5369;49.586;8.646;2022-12-11T02:53:52;36.30;;;21.77;;
10641;SDS011;5369;49.586;8.646;2022-12-11T02:56:20;32.63;;;20.70;;
10641;SDS011;5369;49.586;8.646;2022-12-11T02:58:50;33.53;;;21.77;;
10641;SDS011;5369;49.586;8.646;2022-12-11T03:01:18;34.60;;;20.60;;
10641;SDS011;5369;49.586;8.646;2022-12-11T03:03:44;36.43;;;22.23;;
10641;SDS011;5369;49.586;8.646;2022-12-11T03:06:12;42.97;;;24.03;;
10641;SDS011;5369;49.586;8.646;2022-12-11T03:08:39;35.07;;;20.53;;
10641;SDS011;5369;49.586;8.646;2022-12-11T03:11:09;36.27;;;22.50;;
10641;SDS011;5369;49.586;8.646;2022-12-11T03:13:35;36.40;;;22.23;;
10641;SDS011;5369;49.586;8.646;2022-12-11T03:18:38;36.67;;;23.23;;
10641;SDS011;5369;49.586;8.646;2022-12-11T03:21:14;33.97;;;21.53;;
10641;SDS011;5369;49.586;8.646;2022-12-11T03:23:43;32.93;;;20.60;;
10641;SDS011;5369;49.586;8.646;2022-12-11T03:26:11;34.40;;;21.27;;
10641;SDS011;5369;49.586;8.646;2022-12-11T03:28:45;36.33;;;22.07;;
10641;SDS011;5369;49.586;8.646;2022-12-11T03:31:14;33.47;;;21.57;;
10641;SDS011;5369;49.586;8.646;2022-12-11T03:33:42;35.70;;;22.17;;
10641;SDS011;5369;49.586;8.646;2022-12-11T03:36:13;36.80;;;21.87;;
10641;SDS011;5369;49.586;8.646;2022-12-11T03:38:46;32.73;;;20.80;;
10641;SDS011;5369;49.586;8.646;2022-12-11T03:41:14;36.10;;;22.77;;
10641;SDS011;5369;49.586;8.646;2022-12-11T03:43:41;37.43;;;23.87;;
10641;SDS011;5369;49.586;8.646;2022-12-11T03:46:07;36.27;;;21.90;;
10641;SDS011;5369;49.586;8.646;2022-12-11T03:48:34;32.70;;;20.50;;
10641;SDS011;5369;49.586;8.646;2022-12-11T03:51:03;37.40;;;23.27;;
10641;SDS011;5369;49.586;8.646;2022-12-11T03:53:30;34.67;;;22.23;;
10641;SDS011;5369;49.586;8.646;2022-12-11T03:55:57;36.63;;;23.00;;
10641;SDS011;5369;49.586;8.646;2022-12-11T03:58:25;36.20;;;22.70;;
10641;SDS011;5369;49.586;8.646;2022-12-11T04:00:51;38.07;;;24.03;;
10641;SDS011;5369;49.586;8.646;2022-12-11T04:03:17;38.17;;;23.70;;
10641;SDS011;5369;49.586;8.646;2022-12-11T04:05:45;39.90;;;24.20;;
10641;SDS011;5369;49.586;8.646;2022-12-11T04:08:11;37.53;;;22.73;;
10641;SDS011;5369;49.586;8.646;2022-12-11T04:10:38;36.83;;;24.40;;
10641;SDS011;5369;49.586;8.646;2022-12-11T04:13:04;36.50;;;22.93;;
10641;SDS011;5369;49.586;8.646;2022-12-11T04:15:30;36.63;;;22.77;;
10641;SDS011;5369;49.586;8.646;2022-12-11T04:17:57;36.03;;;22.10;;
10641;SDS011;5369;49.586;8.646;2022-12-11T04:20:42;36.77;;;22.10;;
10641;SDS011;5369;49.586;8.646;2022-12-11T04:23:27;36.37;;;22.80;;
10641;SDS011;5369;49.586;8.646;2022-12-11T04:26:16;39.33;;;24.00;;
10641;SDS011;5369;49.586;8.646;2022-12-11T04:28:43;39.40;;;24.30;;
10641;SDS011;5369;49.586;8.646;2022-12-11T04:31:11;38.03;;;23.43;;
10641;SDS011;5369;49.586;8.646;2022-12-11T04:33:38;38.03;;;23.07;;
10641;SDS011;5369;49.586;8.646;2022-12-11T04:36:04;40.23;;;23.23;;
10641;SDS011;5369;49.586;8.646;2022-12-11T04:38:31;35.37;;;21.57;;
10641;SDS011;5369;49.586;8.646;2022-12-11T04:41:01;34.50;;;22.60;;
10641;SDS011;5369;49.586;8.646;2022-12-11T04:43:27;35.53;;;22.17;;
10641;SDS011;5369;49.586;8.646;2022-12-11T04:46:04;34.17;;;21.37;;
10641;SDS011;5369;49.586;8.646;2022-12-11T04:48:30;38.27;;;23.97;;
10641;SDS011;5369;49.586;8.646;2022-12-11T04:50:56;39.33;;;23.83;;
10641;SDS011;5369;49.586;8.646;2022-12-11T04:53:23;34.97;;;22.67;;
10641;SDS011;5369;49.586;8.646;2022-12-11T04:55:49;36.37;;;22.60;;
10641;SDS011;5369;49.586;8.646;2022-12-11T04:58:15;39.03;;;24.20;;
10641;SDS011;5369;49.586;8.646;2022-12-11T05:00:42;34.03;;;22.37;;
10641;SDS011;5369;49.586;8.646;2022-12-11T05:03:08;39.03;;;23.60;;
10641;SDS011;5369;49.586;8.646;2022-12-11T05:05:34;38.63;;;23.07;;
10641;SDS011;5369;49.586;8.646;2022-12-11T05:08:00;37.87;;;24.20;;
10641;SDS011;5369;49.586;8.646;2022-12-11T05:10:26;37.57;;;23.43;;
10641;SDS011;5369;49.586;8.646;2022-12-11T05:12:53;40.00;;;24.13;;
10641;SDS011;5369;49.586;8.646;2022-12-11T05:15:19;37.67;;;23.67;;
10641;SDS011;5369;49.586;8.646;2022-12-11T05:17:45;44.63;;;26.50;;
10641;SDS011;5369;49.586;8.646;2022-12-11T05:20:11;39.37;;;24.83;;
10641;SDS011;5369;49.586;8.646;2022-12-11T05:22:37;40.73;;;24.77;;
10641;SDS011;5369;49.586;8.646;2022-12-11T05:25:04;37.17;;;24.00;;
10641;SDS011;5369;49.586;8.646;2022-12-11T05:27:30;38.07;;;23.23;;
10641;SDS011;5369;49.586;8.646;2022-12-11T05:29:57;39.50;;;24.90;;
10641;SDS011;5369;49.586;8.646;2022-12-11T05:32:23;43.37;;;26.10;;
10641;SDS011;5369;49.586;8.646;2022-12-11T05:34:49;38.03;;;23.80;;
10641;SDS011;5369;49.586;8.646;2022-12-11T05:37:16;40.57;;;25.57;;
10641;SDS011;5369;49.586;8.646;2022-12-11T05:39:42;38.37;;;24.90;;
10641;SDS011;5369;49.586;8.646;2022-12-11T05:42:08;37.50;;;24.13;;
10641;SDS011;5369;49.586;8.646;2022-12-11T05:44:34;39.20;;;24.67;;
10641;SDS011;5369;49.586;8.646;2022-12-11T05:47:00;37.70;;;23.77;;
10641;SDS011;5369;49.586;8.646;2022-12-11T05:49:26;38.27;;;23.47;;
10641;SDS011;5369;49.586;8.646;2022-12-11T05:51:53;39.83;;;24.83;;
10641;SDS011;5369;49.586;8.646;2022-12-11T05:54:19;37.40;;;23.20;;
10641;SDS011;5369;49.586;8.646;2022-12-11T05:56:45;40.27;;;25.47;;
10641;SDS011;5369;49.586;8.646;2022-12-11T05:59:11;37.53;;;23.77;;
10641;SDS011;5369;49.586;8.646;2022-12-11T06:01:38;36.47;;;23.63;;
10641;SDS011;5369;49.586;8.646;2022-12-11T06:04:05;43.20;;;26.30;;
10641;SDS011;5369;49.586;8.646;2022-12-11T06:06:31;42.07;;;24.90;;
10641;SDS011;5369;49.586;8.646;2022-12-11T06:08:58;42.33;;;25.73;;
10641;SDS011;5369;49.586;8.646;2022-12-11T06:11:25;43.20;;;26.30;;
10641;SDS011;5369;49.586;8.646;2022-12-11T06:13:52;41.40;;;25.67;;
10641;SDS011;5369;49.586;8.646;2022-12-11T06:16:19;45.97;;;27.40;;
10641;SDS011;5369;49.586;8.646;2022-12-11T06:18:46;47.30;;;28.50;;
10641;SDS011;5369;49.586;8.646;2022-12-11T06:21:13;41.37;;;25.50;;
10641;SDS011;5369;49.586;8.646;2022-12-11T06:23:39;45.80;;;27.77;;
10641;SDS011;5369;49.586;8.646;2022-12-11T06:26:06;43.47;;;27.20;;
10641;SDS011;5369;49.586;8.646;2022-12-11T06:28:32;40.23;;;25.43;;
10641;SDS011;5369;49.586;8.646;2022-12-11T06:30:59;46.70;;;29.40;;
10641;SDS011;5369;49.586;8.646;2022-12-11T06:33:25;44.53;;;26.90;;
10641;SDS011;5369;49.586;8.646;2022-12-11T06:35:51;43.73;;;26.43;;
10641;SDS011;5369;49.586;8.646;2022-12-11T06:38:17;43.67;;;27.87;;
10641;SDS011;5369;49.586;8.646;2022-12-11T06:40:44;45.50;;;26.30;;
10641;SDS011;5369;49.586;8.646;2022-12-11T06:43:11;44.07;;;26.50;;
10641;SDS011;5369;49.586;8.646;2022-12-11T06:45:37;44.60;;;26.50;;
10641;SDS011;5369;49.586;8.646;2022-12-11T06:48:03;45.10;;;26.97;;
10641;SDS011;5369;49.586;8.646;2022-12-11T06:50:29;43.97;;;25.63;;
10641;SDS011;5369;49.586;8.646;2022-12-11T06:52:55;41.23;;;24.17;;
10641;SDS011;5369;49.586;8.646;2022-12-11T06:55:22;46.37;;;26.50;;
10641;SDS011;5369;49.586;8.646;2022-12-11T06:57:48;49.60;;;28.00;;
10641;SDS011;5369;49.586;8.646;2022-12-11T07:00:14;45.13;;;28.27;;
10641;SDS011;5369;49.586;8.646;2022-12-11T07:02:40;42.43;;;26.33;;
10641;SDS011;5369;49.586;8.646;2022-12-11T07:05:07;44.57;;;25.30;;
10641;SDS011;5369;49.586;8.646;2022-12-11T07:07:33;43.30;;;26.07;;
10641;SDS011;5369;49.586;8.646;2022-12-11T07:09:59;42.37;;;25.57;;
10641;SDS011;5369;49.586;8.646;2022-12-11T07:12:25;43.07;;;26.07;;
10641;SDS011;5369;49.586;8.646;2022-12-11T07:14:51;45.53;;;27.33;;
10641;SDS011;5369;49.586;8.646;2022-12-11T07:17:18;43.83;;;26.70;;
10641;SDS011;5369;49.586;8.646;2022-12-11T07:19:44;45.07;;;26.83;;
10641;SDS011;5369;49.586;8.646;2022-12-11T07:22:10;48.07;;;27.90;;
10641;SDS011;5369;49.586;8.646;2022-12-11T07:24:36;47.03;;;27.70;;
10641;SDS011;5369;49.586;8.646;2022-12-11T07:27:03;41.10;;;24.60;;
10641;SDS011;5369;49.586;8.646;2022-12-11T07:29:29;43.23;;;26.70;;
10641;SDS011;5369;49.586;8.646;2022-12-11T07:31:55;43.70;;;25.77;;
10641;SDS011;5369;49.586;8.646;2022-12-11T07:34:21;42.70;;;25.90;;
10641;SDS011;5369;49.586;8.646;2022-12-11T07:36:47;45.80;;;27.60;;
10641;SDS011;5369;49.586;8.646;2022-12-11T07:39:13;46.63;;;26.70;;
10641;SDS011;5369;49.586;8.646;2022-12-11T07:41:40;50.07;;;27.83;;
10641;SDS011;5369;49.586;8.646;2022-12-11T07:44:09;46.77;;;27.30;;
10641;SDS011;5369;49.586;8.646;2022-12-11T07:46:36;56.47;;;31.73;;
10641;SDS011;5369;49.586;8.646;2022-12-11T07:49:03;53.57;;;29.17;;
10641;SDS011;5369;49.586;8.646;2022-12-11T07:51:30;55.90;;;28.67;;
10641;SDS011;5369;49.586;8.646;2022-12-11T07:53:58;49.03;;;27.13;;
10641;SDS011;5369;49.586;8.646;2022-12-11T07:56:25;55.43;;;27.83;;
10641;SDS011;5369;49.586;8.646;2022-12-11T07:58:52;48.33;;;26.03;;
10641;SDS011;5369;49.586;8.646;2022-12-11T08:01:22;44.23;;;25.67;;
10641;SDS011;5369;49.586;8.646;2022-12-11T08:03:50;46.53;;;26.57;;
10641;SDS011;5369;49.586;8.646;2022-12-11T08:06:16;47.93;;;26.30;;
10641;SDS011;5369;49.586;8.646;2022-12-11T08:08:43;47.23;;;26.73;;
10641;SDS011;5369;49.586;8.646;2022-12-11T08:11:10;47.17;;;26.67;;
10641;SDS011;5369;49.586;8.646;2022-12-11T08:13:36;49.90;;;26.77;;
10641;SDS011;5369;49.586;8.646;2022-12-11T08:16:03;46.70;;;26.13;;
10641;SDS011;5369;49.586;8.646;2022-12-11T08:18:31;45.97;;;25.77;;
10641;SDS011;5369;49.586;8.646;2022-12-11T08:20:57;46.17;;;26.17;;
10641;SDS011;5369;49.586;8.646;2022-12-11T08:23:24;43.63;;;25.77;;
10641;SDS011;5369;49.586;8.646;2022-12-11T08:25:50;50.10;;;27.50;;
10641;SDS011;5369;49.586;8.646;2022-12-11T08:28:16;51.53;;;26.67;;
10641;SDS011;5369;49.586;8.646;2022-12-11T08:30:42;50.40;;;26.90;;
10641;SDS011;5369;49.586;8.646;2022-12-11T08:33:08;51.60;;;28.77;;
10641;SDS011;5369;49.586;8.646;2022-12-11T08:35:37;46.57;;;25.70;;
10641;SDS011;5369;49.586;8.646;2022-12-11T08:38:04;46.50;;;26.40;;
10641;SDS011;5369;49.586;8.646;2022-12-11T08:40:30;42.27;;;24.10;;
10641;SDS011;5369;49.586;8.646;2022-12-11T08:42:56;46.90;;;26.43;;
10641;SDS011;5369;49.586;8.646;2022-12-11T08:45:22;48.20;;;26.23;;
10641;SDS011;5369;49.586;8.646;2022-12-11T08:47:48;45.77;;;25.47;;
10641;SDS011;5369;49.586;8.646;2022-12-11T08:50:15;47.30;;;26.00;;
10641;SDS011;5369;49.586;8.646;2022-12-11T08:52:41;45.87;;;25.70;;
10641;SDS011;5369;49.586;8.646;2022-12-11T08:55:08;47.77;;;26.97;;
10641;SDS011;5369;49.586;8.646;2022-12-11T08:57:34;44.80;;;23.97;;
10641;SDS011;5369;49.586;8.646;2022-12-11T09:00:00;52.73;;;26.53;;
10641;SDS011;5369;49.586;8.646;2022-12-11T09:02:27;46.63;;;24.67;;
10641;SDS011;5369;49.586;8.646;2022-12-11T09:04:53;48.17;;;25.40;;
10641;SDS011;5369;49.586;8.646;2022-12-11T09:07:19;48.40;;;25.93;;
10641;SDS011;5369;49.586;8.646;2022-12-11T09:09:45;47.33;;;25.67;;
10641;SDS011;5369;49.586;8.646;2022-12-11T09:12:12;44.47;;;25.10;;
10641;SDS011;5369;49.586;8.646;2022-12-11T09:14:38;54.73;;;26.83;;
10641;SDS011;5369;49.586;8.646;2022-12-11T09:17:04;45.30;;;24.67;;
10641;SDS011;5369;49.586;8.646;2022-12-11T09:19:30;44.10;;;24.13;;
10641;SDS011;5369;49.586;8.646;2022-12-11T09:21:56;46.53;;;25.90;;
10641;SDS011;5369;49.586;8.646;2022-12-11T09:24:22;49.87;;;26.63;;
10641;SDS011;5369;49.586;8.646;2022-12-11T09:26:49;46.63;;;26.13;;
10641;SDS011;5369;49.586;8.646;2022-12-11T09:29:15;50.23;;;26.30;;
10641;SDS011;5369;49.586;8.646;2022-12-11T09:31:41;52.57;;;25.13;;
10641;SDS011;5369;49.586;8.646;2022-12-11T09:34:09;51.10;;;25.60;;
10641;SDS011;5369;49.586;8.646;2022-12-11T09:36:37;51.27;;;26.83;;
10641;SDS011;5369;49.586;8.646;2022-12-11T09:39:03;48.53;;;25.97;;
10641;SDS011;5369;49.586;8.646;2022-12-11T09:46:28;52.37;;;26.70;;
10641;SDS011;5369;49.586;8.646;2022-12-11T09:48:55;49.67;;;25.37;;
10641;SDS011;5369;49.586;8.646;2022-12-11T09:51:41;51.73;;;25.80;;
10641;SDS011;5369;49.586;8.646;2022-12-11T09:54:10;46.77;;;24.40;;
10641;SDS011;5369;49.586;8.646;2022-12-11T10:07:05;51.00;;;25.17;;
10641;SDS011;5369;49.586;8.646;2022-12-11T10:12:20;50.70;;;25.57;;
10641;SDS011;5369;49.586;8.646;2022-12-11T10:17:30;51.07;;;25.27;;
10641;SDS011;5369;49.586;8.646;2022-12-11T10:19:59;51.73;;;24.30;;
10641;SDS011;5369;49.586;8.646;2022-12-11T10:22:28;51.73;;;26.83;;
10641;SDS011;5369;49.586;8.646;2022-12-11T10:24:59;52.57;;;30.33;;
10641;SDS011;5369;49.586;8.646;2022-12-11T10:27:29;58.33;;;29.60;;
10641;SDS011;5369;49.586;8.646;2022-12-11T10:32:47;48.90;;;26.03;;
10641;SDS011;5369;49.586;8.646;2022-12-11T10:35:19;55.40;;;28.33;;
10641;SDS011;5369;49.586;8.646;2022-12-11T10:37:48;47.60;;;25.23;;
10641;SDS011;5369;49.586;8.646;2022-12-11T10:40:14;48.10;;;25.27;;
10641;SDS011;5369;49.586;8.646;2022-12-11T10:42:50;52.50;;;27.13;;
10641;SDS011;5369;49.586;8.646;2022-12-11T10:45:16;45.07;;;24.27;;
10641;SDS011;5369;49.586;8.646;2022-12-11T10:47:42;49.90;;;26.30;;
10641;SDS011;5369;49.586;8.646;2022-12-11T10:50:20;50.87;;;27.27;;
10641;SDS011;5369;49.586;8.646;2022-12-11T10:52:47;51.70;;;26.40;;
10641;SDS011;5369;49.586;8.646;2022-12-11T10:57:42;46.57;;;25.23;;
10641;SDS011;5369;49.586;8.646;2022-12-11T11:00:25;44.87;;;25.27;;
10641;SDS011;5369;49.586;8.646;2022-12-11T11:02:53;45.97;;;24.90;;
10641;SDS011;5369;49.586;8.646;2022-12-11T11:08:10;45.17;;;24.00;;
10641;SDS011;5369;49.586;8.646;2022-12-11T11:10:37;46.87;;;24.50;;
10641;SDS011;5369;49.586;8.646;2022-12-11T11:13:13;44.63;;;24.10;;
10641;SDS011;5369;49.586;8.646;2022-12-11T11:15:39;44.17;;;23.87;;
10641;SDS011;5369;49.586;8.646;2022-12-11T11:18:10;39.70;;;22.53;;
10641;SDS011;5369;49.586;8.646;2022-12-11T11:20:41;50.57;;;28.80;;
10641;SDS011;5369;49.586;8.646;2022-12-11T11:23:10;50.13;;;25.80;;
10641;SDS011;5369;49.586;8.646;2022-12-11T11:25:38;45.63;;;26.40;;
10641;SDS011;5369;49.586;8.646;2022-12-11T11:28:08;42.33;;;24.13;;
10641;SDS011;5369;49.586;8.646;2022-12-11T11:30:52;43.40;;;24.67;;
10641;SDS011;5369;49.586;8.646;2022-12-11T11:33:20;45.03;;;24.43;;
10641;SDS011;5369;49.586;8.646;2022-12-11T11:36:02;43.07;;;23.60;;
10641;SDS011;5369;49.586;8.646;2022-12-11T11:51:45;41.70;;;24.80;;
10641;SDS011;5369;49.586;8.646;2022-12-11T11:53:52;43.83;;;23.63;;
10641;SDS011;5369;49.586;8.646;2022-12-11T11:56:20;45.10;;;26.03;;
10641;SDS011;5369;49.586;8.646;2022-12-11T12:01:17;47.53;;;25.00;;
10641;SDS011;5369;49.586;8.646;2022-12-11T12:03:44;42.37;;;24.00;;
10641;SDS011;5369;49.586;8.646;2022-12-11T12:11:29;44.60;;;24.70;;
10641;SDS011;5369;49.586;8.646;2022-12-11T12:21:57;38.73;;;22.20;;
10641;SDS011;5369;49.586;8.646;2022-12-11T12:27:30;44.17;;;24.53;;
10641;SDS011;5369;49.586;8.646;2022-12-11T12:30:04;41.03;;;23.87;;
10641;SDS011;5369;49.586;8.646;2022-12-11T12:37:31;49.53;;;26.77;;
10641;SDS011;5369;49.586;8.646;2022-12-11T12:47:18;43.97;;;24.27;;
10641;SDS011;5369;49.586;8.646;2022-12-11T12:49:46;44.27;;;24.70;;
10641;SDS011;5369;49.586;8.646;2022-12-11T12:54:43;43.03;;;23.60;;
10641;SDS011;5369;49.586;8.646;2022-12-11T12:57:30;41.27;;;23.80;;
10641;SDS011;5369;49.586;8.646;2022-12-11T12:59:58;45.73;;;25.13;;
10641;SDS011;5369;49.586;8.646;2022-12-11T13:02:24;43.93;;;25.10;;
10641;SDS011;5369;49.586;8.646;2022-12-11T13:04:55;42.23;;;23.40;;
10641;SDS011;5369;49.586;8.646;2022-12-11T13:07:25;45.20;;;25.37;;
10641;SDS011;5369;49.586;8.646;2022-12-11T13:09:57;40.27;;;23.30;;
10641;SDS011;5369;49.586;8.646;2022-12-11T13:12:30;43.17;;;24.60;;
10641;SDS011;5369;49.586;8.646;2022-12-11T13:14:57;45.33;;;24.50;;
10641;SDS011;5369;49.586;8.646;2022-12-11T13:17:35;44.23;;;25.87;;
10641;SDS011;5369;49.586;8.646;2022-12-11T13:20:09;48.33;;;25.93;;
10641;SDS011;5369;49.586;8.646;2022-12-11T13:22:45;41.10;;;23.17;;
10641;SDS011;5369;49.586;8.646;2022-12-11T13:25:20;44.80;;;24.13;;
10641;SDS011;5369;49.586;8.646;2022-12-11T13:27:46;41.03;;;23.20;;
10641;SDS011;5369;49.586;8.646;2022-12-11T13:32:40;40.53;;;23.03;;
10641;SDS011;5369;49.586;8.646;2022-12-11T13:35:11;46.13;;;25.10;;
10641;SDS011;5369;49.586;8.646;2022-12-11T13:37:43;48.13;;;26.47;;
10641;SDS011;5369;49.586;8.646;2022-12-11T13:40:20;42.93;;;24.53;;
10641;SDS011;5369;49.586;8.646;2022-12-11T13:45:18;46.30;;;25.50;;
10641;SDS011;5369;49.586;8.646;2022-12-11T13:47:46;42.27;;;24.93;;
10641;SDS011;5369;49.586;8.646;2022-12-11T13:50:14;44.87;;;25.93;;
10641;SDS011;5369;49.586;8.646;2022-12-11T13:52:51;46.63;;;25.33;;
10641;SDS011;5369;49.586;8.646;2022-12-11T13:57:50;44.37;;;24.07;;
10641;SDS011;5369;49.586;8.646;2022-12-11T14:00:20;47.13;;;25.97;;
10641;SDS011;5369;49.586;8.646;2022-12-11T14:02:47;48.00;;;26.30;;
10641;SDS011;5369;49.586;8.646;2022-12-11T14:05:14;43.67;;;25.23;;
10641;SDS011;5369;49.586;8.646;2022-12-11T14:15:18;42.60;;;23.63;;
10641;SDS011;5369;49.586;8.646;2022-12-11T14:17:44;42.73;;;25.53;;
10641;SDS011;5369;49.586;8.646;2022-12-11T14:20:18;40.70;;;23.83;;
10641;SDS011;5369;49.586;8.646;2022-12-11T14:22:45;44.17;;;25.10;;
10641;SDS011;5369;49.586;8.646;2022-12-11T14:25:16;41.13;;;23.57;;
10641;SDS011;5369;49.586;8.646;2022-12-11T14:27:48;44.30;;;24.67;;
10641;SDS011;5369;49.586;8.646;2022-12-11T14:30:22;43.93;;;25.13;;
10641;SDS011;5369;49.586;8.646;2022-12-11T14:32:49;47.13;;;25.97;;
10641;SDS011;5369;49.586;8.646;2022-12-11T14:35:23;42.30;;;23.30;;
10641;SDS011;5369;49.586;8.646;2022-12-11T14:37:50;44.57;;;25.23;;
10641;SDS011;5369;49.586;8.646;2022-12-11T14:40:17;45.90;;;25.17;;
10641;SDS011;5369;49.586;8.646;2022-12-11T14:42:46;46.33;;;25.67;;
10641;SDS011;5369;49.586;8.646;2022-12-11T14:47:42;45.23;;;24.23;;
10641;SDS011;5369;49.586;8.646;2022-12-11T14:52:42;46.53;;;25.07;;
10641;SDS011;5369;49.586;8.646;2022-12-11T14:55:12;44.30;;;24.73;;
10641;SDS011;5369;49.586;8.646;2022-12-11T14:57:41;45.20;;;23.93;;
10641;SDS011;5369;49.586;8.646;2022-12-11T15:00:19;43.57;;;23.70;;
10641;SDS011;5369;49.586;8.646;2022-12-11T15:02:55;49.27;;;25.07;;
10641;SDS011;5369;49.586;8.646;2022-12-11T15:05:21;46.17;;;24.07;;
10641;SDS011;5369;49.586;8.646;2022-12-11T15:08:01;43.47;;;24.00;;
10641;SDS011;5369;49.586;8.646;2022-12-11T15:12:55;47.10;;;25.13;;
10641;SDS011;5369;49.586;8.646;2022-12-11T15:15:22;45.30;;;24.93;;
10641;SDS011;5369;49.586;8.646;2022-12-11T15:17:49;47.37;;;26.63;;
10641;SDS011;5369;49.586;8.646;2022-12-11T15:20:21;45.90;;;25.33;;
10641;SDS011;5369;49.586;8.646;2022-12-11T15:22:47;43.83;;;24.73;;
10641;SDS011;5369;49.586;8.646;2022-12-11T15:25:21;44.53;;;23.83;;
10641;SDS011;5369;49.586;8.646;2022-12-11T15:27:52;43.87;;;24.30;;
10641;SDS011;5369;49.586;8.646;2022-12-11T15:35:27;46.43;;;24.00;;
10641;SDS011;5369;49.586;8.646;2022-12-11T15:37:54;45.00;;;23.90;;
10641;SDS011;5369;49.586;8.646;2022-12-11T15:40:21;46.83;;;25.30;;
10641;SDS011;5369;49.586;8.646;2022-12-11T15:42:47;47.42;;;27.90;;
10641;SDS011;5369;49.586;8.646;2022-12-11T15:45:15;44.40;;;25.40;;
10641;SDS011;5369;49.586;8.646;2022-12-11T15:47:41;48.13;;;28.17;;
10641;SDS011;5369;49.586;8.646;2022-12-11T15:50:18;49.60;;;26.80;;
10641;SDS011;5369;49.586;8.646;2022-12-11T15:52:46;47.17;;;25.53;;
10641;SDS011;5369;49.586;8.646;2022-12-11T15:55:12;46.93;;;25.90;;
10641;SDS011;5369;49.586;8.646;2022-12-11T15:57:39;46.33;;;29.65;;
10641;SDS011;5369;49.586;8.646;2022-12-11T16:00:09;42.60;;;23.43;;
10641;SDS011;5369;49.586;8.646;2022-12-11T16:02:38;47.90;;;26.30;;
10641;SDS011;5369;49.586;8.646;2022-12-11T16:05:04;56.90;;;31.10;;
10641;SDS011;5369;49.586;8.646;2022-12-11T16:07:31;50.07;;;27.97;;
10641;SDS011;5369;49.586;8.646;2022-12-11T16:09:58;50.73;;;27.67;;
10641;SDS011;5369;49.586;8.646;2022-12-11T16:12:24;47.90;;;25.83;;
10641;SDS011;5369;49.586;8.646;2022-12-11T16:14:50;48.10;;;29.30;;
10641;SDS011;5369;49.586;8.646;2022-12-11T16:17:16;45.63;;;25.98;;
10641;SDS011;5369;49.586;8.646;2022-12-11T16:19:43;46.85;;;30.38;;
10641;SDS011;5369;49.586;8.646;2022-12-11T16:22:10;46.90;;;26.93;;
10641;SDS011;5369;49.586;8.646;2022-12-11T16:24:37;42.63;;;24.50;;
10641;SDS011;5369;49.586;8.646;2022-12-11T16:27:04;49.33;;;26.60;;
10641;SDS011;5369;49.586;8.646;2022-12-11T16:29:34;44.40;;;25.73;;
10641;SDS011;5369;49.586;8.646;2022-12-11T16:32:00;47.27;;;25.77;;
10641;SDS011;5369;49.586;8.646;2022-12-11T16:34:27;44.57;;;25.50;;